createdAt,value
2023-03-08T00:00:44.614Z,26.70
2023-03-08T00:03:14.046Z,25.77
2023-03-08T00:05:41.187Z,22.10
2023-03-08T00:08:08.169Z,20.85
2023-03-08T00:10:35.202Z,25.42
2023-03-08T00:13:02.199Z,22.27
2023-03-08T00:15:29.219Z,22.58
2023-03-08T00:17:56.185Z,23.50
2023-03-08T00:20:23.201Z,25.15
2023-03-08T00:22:50.297Z,28.08
2023-03-08T00:25:17.552Z,22.50
2023-03-08T00:27:44.606Z,22.70
2023-03-08T00:30:12.538Z,25.75
2023-03-08T00:32:39.584Z,29.20
2023-03-08T00:35:06.719Z,24.10
2023-03-08T00:37:33.765Z,19.70
2023-03-08T00:40:00.757Z,19.85
2023-03-08T00:42:27.785Z,23.80
2023-03-08T00:44:54.820Z,24.67
2023-03-08T00:47:21.766Z,27.70
2023-03-08T00:49:48.845Z,24.77
2023-03-08T00:52:15.875Z,25.30
2023-03-08T00:54:42.881Z,21.25
2023-03-08T00:57:09.883Z,18.40
2023-03-08T00:59:36.918Z,24.60
2023-03-08T01:02:03.922Z,21.52
2023-03-08T01:04:33.198Z,18.05
2023-03-08T01:07:03.168Z,21.67
2023-03-08T01:09:30.181Z,23.35
2023-03-08T01:11:57.175Z,18.13
2023-03-08T01:14:24.219Z,17.02
2023-03-08T01:16:51.231Z,18.73
2023-03-08T01:19:18.263Z,18.67
2023-03-08T01:21:45.231Z,22.73
2023-03-08T01:24:12.261Z,20.52
2023-03-08T01:26:39.262Z,18.60
2023-03-08T01:29:06.944Z,23.15
2023-03-08T01:31:33.955Z,19.08
2023-03-08T01:34:01.018Z,19.45
2023-03-08T01:36:28.487Z,17.38
2023-03-08T01:38:55.745Z,24.40
2023-03-08T01:41:27.147Z,18.77
2023-03-08T01:43:54.431Z,24.40
2023-03-08T01:46:24.317Z,18.95
2023-03-08T01:48:51.305Z,21.65
2023-03-08T01:51:21.534Z,22.48
2023-03-08T01:53:48.605Z,23.40
2023-03-08T01:56:16.803Z,23.65
2023-03-08T01:58:45.743Z,26.02
2023-03-08T02:01:12.913Z,23.45
2023-03-08T02:03:39.955Z,26.08
2023-03-08T02:06:07.402Z,21.65
2023-03-08T02:08:34.755Z,20.48
2023-03-08T02:11:02.134Z,19.95
2023-03-08T02:13:29.371Z,26.58
2023-03-08T02:15:57.478Z,18.55
2023-03-08T02:18:24.632Z,28.52
2023-03-08T02:20:51.731Z,23.65
2023-03-08T02:23:20.872Z,23.88
2023-03-08T02:25:54.985Z,24.65
2023-03-08T02:28:23.231Z,36.30
2023-03-08T02:30:50.828Z,25.73
2023-03-08T02:33:18.769Z,26.75
2023-03-08T02:35:46.059Z,26.23
2023-03-08T02:38:13.959Z,30.42
2023-03-08T02:40:41.082Z,32.13
2023-03-08T02:43:08.680Z,34.45
2023-03-08T02:45:35.941Z,37.40
2023-03-08T02:48:03.968Z,29.52
2023-03-08T02:50:31.560Z,28.52
2023-03-08T02:52:59.060Z,31.60
2023-03-08T02:55:26.973Z,32.03
2023-03-08T02:57:54.037Z,32.08
2023-03-08T03:00:21.378Z,34.53
2023-03-08T03:02:48.593Z,30.75
2023-03-08T03:05:15.684Z,40.83
2023-03-08T03:07:43.715Z,41.25
2023-03-08T03:10:11.921Z,37.85
2023-03-08T03:12:39.420Z,46.08
2023-03-08T03:15:07.153Z,42.83
2023-03-08T03:17:34.174Z,47.97
2023-03-08T03:20:01.152Z,42.67
2023-03-08T03:22:28.555Z,43.97
2023-03-08T03:24:55.526Z,42.45
2023-03-08T03:27:22.508Z,42.38
2023-03-08T03:29:49.510Z,46.50
2023-03-08T03:32:16.763Z,40.15
2023-03-08T03:34:43.817Z,41.03
2023-03-08T03:37:10.855Z,39.80
2023-03-08T03:39:38.997Z,37.13
2023-03-08T03:42:06.815Z,37.20
2023-03-08T03:44:33.831Z,37.40
2023-03-08T03:47:00.910Z,35.53
2023-03-08T03:49:28.160Z,35.03
2023-03-08T03:51:55.223Z,36.90
2023-03-08T03:54:22.256Z,38.38
2023-03-08T03:56:49.342Z,39.20
2023-03-08T03:59:16.339Z,32.90
2023-03-08T04:01:43.618Z,31.70
2023-03-08T04:04:11.261Z,31.77
2023-03-08T04:06:38.387Z,23.80
2023-03-08T04:09:07.070Z,22.48
2023-03-08T04:11:38.096Z,25.15
2023-03-08T04:14:05.553Z,24.33
2023-03-08T04:16:34.240Z,27.15
2023-03-08T04:19:02.289Z,24.33
2023-03-08T04:21:29.679Z,24.88
2023-03-08T04:24:04.016Z,29.08
2023-03-08T04:26:31.091Z,26.08
2023-03-08T04:28:58.319Z,33.35
2023-03-08T04:31:29.310Z,30.17
2023-03-08T04:33:58.085Z,32.67
2023-03-08T04:36:25.087Z,32.88
2023-03-08T04:38:52.380Z,27.95
2023-03-08T04:41:19.925Z,31.17
2023-03-08T04:43:50.865Z,27.70
2023-03-08T04:46:18.681Z,26.02
2023-03-08T04:48:46.230Z,32.15
2023-03-08T04:51:13.871Z,26.85
2023-03-08T04:53:41.763Z,27.75
2023-03-08T04:56:09.805Z,29.33
2023-03-08T04:58:37.510Z,26.20
2023-03-08T05:01:15.343Z,32.97
2023-03-08T05:03:42.789Z,29.35
2023-03-08T05:06:10.420Z,34.55
2023-03-08T05:08:37.536Z,25.00
2023-03-08T05:11:04.703Z,30.88
2023-03-08T05:13:33.571Z,31.10
2023-03-08T05:16:00.646Z,31.88
2023-03-08T05:18:27.736Z,36.78
2023-03-08T05:20:55.814Z,30.70
2023-03-08T05:23:23.030Z,35.15
2023-03-08T05:25:52.436Z,28.67
2023-03-08T05:28:19.598Z,35.60
2023-03-08T05:30:46.624Z,39.67
2023-03-08T05:33:13.691Z,34.78
2023-03-08T05:35:40.799Z,33.10
2023-03-08T05:38:07.831Z,37.17
2023-03-08T05:40:34.905Z,34.53
2023-03-08T05:43:01.894Z,37.03
2023-03-08T05:45:28.964Z,40.75
2023-03-08T05:47:56.002Z,40.58
2023-03-08T05:50:22.960Z,32.17
2023-03-08T05:52:50.065Z,33.88
2023-03-08T05:55:17.043Z,40.35
2023-03-08T05:57:44.113Z,31.50
2023-03-08T06:00:13.627Z,39.00
2023-03-08T06:02:41.695Z,28.63
2023-03-08T06:05:08.919Z,38.05
2023-03-08T06:07:36.007Z,37.88
2023-03-08T06:10:02.988Z,40.83
2023-03-08T06:12:30.011Z,30.83
2023-03-08T06:14:57.060Z,35.40
2023-03-08T06:17:24.110Z,31.15
2023-03-08T06:19:51.129Z,35.85
2023-03-08T06:22:18.165Z,48.85
2023-03-08T06:24:49.479Z,35.38
2023-03-08T06:27:17.743Z,35.13
2023-03-08T06:29:44.827Z,47.75
2023-03-08T06:32:11.883Z,42.60
2023-03-08T06:34:38.921Z,46.63
2023-03-08T06:37:05.987Z,41.97
2023-03-08T06:39:34.073Z,42.30
2023-03-08T06:42:04.111Z,39.58
2023-03-08T06:44:31.361Z,43.55
2023-03-08T06:46:58.612Z,45.90
2023-03-08T06:49:25.630Z,43.03
2023-03-08T06:51:52.739Z,44.60
2023-03-08T06:54:19.761Z,44.67
2023-03-08T06:56:47.832Z,39.53
2023-03-08T06:59:15.237Z,39.05
2023-03-08T07:01:42.352Z,39.83
2023-03-08T07:04:09.484Z,42.10
2023-03-08T07:06:36.628Z,42.75
2023-03-08T07:09:04.648Z,38.13
2023-03-08T07:11:33.586Z,37.17
2023-03-08T07:14:00.594Z,34.25
2023-03-08T07:16:28.724Z,39.70
2023-03-08T07:18:56.912Z,43.25
2023-03-08T07:21:24.456Z,45.60
2023-03-08T07:23:52.796Z,39.38
2023-03-08T07:26:19.920Z,36.65
2023-03-08T07:28:51.438Z,36.60
2023-03-08T07:31:18.626Z,35.45
2023-03-08T07:33:45.679Z,39.95
2023-03-08T07:36:12.927Z,33.72
2023-03-08T07:38:40.029Z,36.42
2023-03-08T07:41:07.067Z,37.92
2023-03-08T07:43:34.061Z,39.78
2023-03-08T07:46:02.489Z,37.80
2023-03-08T07:48:29.839Z,34.92
2023-03-08T07:51:01.192Z,34.75
2023-03-08T07:53:28.225Z,35.67
2023-03-08T07:55:55.256Z,43.58
2023-03-08T07:58:22.336Z,40.55
2023-03-08T08:00:49.424Z,38.25
2023-03-08T08:03:16.479Z,42.08
2023-03-08T08:05:43.689Z,37.00
2023-03-08T08:08:13.672Z,33.78
2023-03-08T08:10:41.847Z,40.15
2023-03-08T08:13:09.193Z,31.63
2023-03-08T08:15:36.359Z,36.38
2023-03-08T08:18:04.150Z,43.63
2023-03-08T08:20:31.247Z,46.55
2023-03-08T08:22:58.223Z,42.63
2023-03-08T08:25:25.363Z,39.63
2023-03-08T08:27:52.436Z,40.08
2023-03-08T08:30:19.639Z,43.88
2023-03-08T08:32:46.747Z,37.97
2023-03-08T08:35:13.842Z,37.78
2023-03-08T08:37:40.917Z,43.15
2023-03-08T08:40:08.178Z,39.03
2023-03-08T08:42:35.185Z,45.00
2023-03-08T08:45:02.265Z,42.78
2023-03-08T08:47:29.752Z,45.72
2023-03-08T08:49:56.853Z,40.28
2023-03-08T08:52:23.954Z,47.55
2023-03-08T08:54:51.798Z,39.85
2023-03-08T08:57:18.822Z,43.17
2023-03-08T08:59:45.823Z,43.72
2023-03-08T09:02:12.921Z,44.65
2023-03-08T09:04:40.068Z,45.72
2023-03-08T09:07:07.440Z,43.35
2023-03-08T09:09:34.541Z,43.80
2023-03-08T09:12:01.523Z,50.60
2023-03-08T09:14:28.536Z,45.33
2023-03-08T09:16:55.728Z,43.35
2023-03-08T09:19:22.894Z,42.00
2023-03-08T09:21:49.960Z,45.00
2023-03-08T09:24:17.137Z,44.05
2023-03-08T09:26:44.147Z,45.50
2023-03-08T09:29:11.951Z,45.03
2023-03-08T09:31:39.366Z,35.95
2023-03-08T09:34:08.862Z,38.28
2023-03-08T09:36:36.873Z,42.60
2023-03-08T09:39:05.198Z,36.63
2023-03-08T09:41:32.181Z,39.25
2023-03-08T09:44:17.795Z,40.95
2023-03-08T09:46:47.269Z,35.83
2023-03-08T09:49:16.874Z,31.30
2023-03-08T09:51:46.721Z,33.80
2023-03-08T09:54:17.824Z,37.40
2023-03-08T09:56:49.392Z,35.50
2023-03-08T09:59:33.830Z,35.90
2023-03-08T10:02:19.499Z,26.17
2023-03-08T10:05:13.601Z,34.42
2023-03-08T10:07:50.334Z,30.10
2023-03-08T10:10:23.620Z,26.73
2023-03-08T10:13:08.074Z,28.10
2023-03-08T10:15:40.778Z,30.35
2023-03-08T10:18:14.097Z,25.20
2023-03-08T10:20:41.445Z,28.00
2023-03-08T10:23:14.860Z,24.33
2023-03-08T10:25:49.649Z,29.55
2023-03-08T10:28:20.811Z,26.23
2023-03-08T10:30:56.279Z,26.13
2023-03-08T10:33:24.489Z,26.25
2023-03-08T10:35:54.330Z,22.55
2023-03-08T10:38:21.916Z,24.35
2023-03-08T10:40:48.946Z,22.90
2023-03-08T10:43:24.877Z,23.52
2023-03-08T10:46:03.045Z,21.15
2023-03-08T10:48:30.179Z,23.30
2023-03-08T10:51:01.193Z,19.80
2023-03-08T10:53:29.833Z,19.02
2023-03-08T10:55:57.630Z,23.02
2023-03-08T10:58:50.726Z,26.08
2023-03-08T11:01:28.876Z,20.65
2023-03-08T11:04:06.584Z,26.00
2023-03-08T11:06:35.341Z,26.02
2023-03-08T11:09:03.504Z,26.05
2023-03-08T11:11:40.968Z,26.50
2023-03-08T11:14:10.129Z,26.00
2023-03-08T11:16:47.089Z,23.55
2023-03-08T11:19:23.032Z,23.08
2023-03-08T11:22:00.103Z,22.05
2023-03-08T11:24:39.825Z,22.13
2023-03-08T11:27:06.917Z,21.03
2023-03-08T11:29:50.447Z,24.77
2023-03-08T11:32:42.820Z,20.92
2023-03-08T11:35:09.872Z,22.77
2023-03-08T11:37:36.935Z,19.63
2023-03-08T11:40:24.224Z,17.10
2023-03-08T11:42:57.506Z,22.58
2023-03-08T11:45:34.131Z,17.10
2023-03-08T11:48:19.347Z,18.88
2023-03-08T11:50:52.476Z,16.58
2023-03-08T11:53:19.575Z,17.42
2023-03-08T11:55:46.532Z,11.43
2023-03-08T11:58:28.586Z,18.27
2023-03-08T12:00:59.887Z,16.45
2023-03-08T12:03:39.084Z,19.35
2023-03-08T12:06:22.845Z,16.30
2023-03-08T12:09:13.899Z,18.05
2023-03-08T12:11:43.260Z,15.48
2023-03-08T12:14:21.740Z,14.80
2023-03-08T12:16:55.629Z,16.38
2023-03-08T12:19:41.380Z,17.33
2023-03-08T12:22:17.654Z,13.55
2023-03-08T12:25:03.263Z,17.70
2023-03-08T12:27:35.454Z,15.40
2023-03-08T12:30:13.907Z,16.30
2023-03-08T12:32:41.901Z,14.05
2023-03-08T12:35:29.411Z,12.02
2023-03-08T12:37:57.608Z,16.40
2023-03-08T12:40:27.934Z,15.63
2023-03-08T12:43:12.908Z,17.13
2023-03-08T12:45:44.852Z,15.75
2023-03-08T12:48:20.115Z,16.27
2023-03-08T12:50:55.937Z,15.73
2023-03-08T12:53:39.681Z,15.77
2023-03-08T12:58:40.353Z,13.60
2023-03-08T13:01:08.866Z,13.43
2023-03-08T13:03:42.608Z,16.92
2023-03-08T13:06:25.636Z,14.90
2023-03-08T13:08:56.140Z,14.60
2023-03-08T13:11:25.180Z,12.15
2023-03-08T13:13:57.134Z,14.43
2023-03-08T13:16:27.015Z,15.93
2023-03-08T13:19:02.393Z,15.63
2023-03-08T13:21:38.404Z,14.25
2023-03-08T13:24:11.325Z,14.10
2023-03-08T13:26:50.404Z,11.60
2023-03-08T13:29:18.820Z,10.50
2023-03-08T13:31:46.772Z,10.35
2023-03-08T13:34:27.835Z,15.02
2023-03-08T13:36:55.694Z,16.23
2023-03-08T13:39:24.062Z,13.35
2023-03-08T13:41:51.147Z,17.13
2023-03-08T13:44:18.204Z,13.95
2023-03-08T13:46:45.961Z,13.88
2023-03-08T13:49:33.358Z,13.13
2023-03-08T13:52:01.387Z,13.60
2023-03-08T13:54:30.012Z,13.70
2023-03-08T13:56:59.827Z,13.10
2023-03-08T13:59:27.394Z,11.98
2023-03-08T14:01:54.800Z,13.88
2023-03-08T14:04:26.703Z,15.15
2023-03-08T14:06:55.085Z,16.13
2023-03-08T14:09:22.400Z,14.00
2023-03-08T14:11:58.576Z,16.23
2023-03-08T14:14:30.982Z,15.25
2023-03-08T14:16:59.495Z,17.48
2023-03-08T14:19:44.529Z,15.73
2023-03-08T14:22:21.132Z,16.35
2023-03-08T14:24:56.322Z,16.30
2023-03-08T14:27:40.938Z,12.60
2023-03-08T14:30:16.247Z,12.80
2023-03-08T14:32:56.478Z,13.43
2023-03-08T14:35:25.268Z,14.18
2023-03-08T14:37:56.107Z,14.93
2023-03-08T14:40:26.831Z,13.20
2023-03-08T14:43:02.820Z,12.52
2023-03-08T14:45:37.567Z,11.00
2023-03-08T14:48:26.148Z,10.95
2023-03-08T14:51:01.463Z,11.48
2023-03-08T14:53:30.306Z,9.38
2023-03-08T14:55:58.444Z,10.10
2023-03-08T14:58:32.878Z,10.73
2023-03-08T15:01:01.345Z,12.27
2023-03-08T15:03:29.285Z,9.52
2023-03-08T15:05:56.655Z,12.38
2023-03-08T15:08:23.738Z,9.35
2023-03-08T15:10:51.060Z,8.23
2023-03-08T15:13:22.351Z,12.68
2023-03-08T15:15:50.480Z,12.13
2023-03-08T15:18:17.931Z,13.43
2023-03-08T15:20:48.624Z,12.70
2023-03-08T15:23:22.340Z,12.48
2023-03-08T15:25:49.442Z,14.27
2023-03-08T15:28:17.412Z,13.70
2023-03-08T15:30:44.763Z,15.57
2023-03-08T15:33:11.751Z,13.95
2023-03-08T15:35:39.434Z,15.30
2023-03-08T15:38:06.731Z,15.40
2023-03-08T15:40:36.582Z,12.60
2023-03-08T15:43:03.631Z,13.20
2023-03-08T15:45:30.663Z,14.13
2023-03-08T15:48:00.792Z,16.38
2023-03-08T15:50:28.360Z,14.60
2023-03-08T15:52:55.890Z,15.70
2023-03-08T15:55:24.135Z,12.90
2023-03-08T15:57:51.353Z,11.80
2023-03-08T16:00:20.318Z,15.40
2023-03-08T16:02:47.577Z,13.23
2023-03-08T16:05:15.238Z,13.32
2023-03-08T16:07:42.941Z,15.85
2023-03-08T16:10:11.812Z,12.90
2023-03-08T16:12:38.821Z,12.45
2023-03-08T16:15:06.246Z,13.30
2023-03-08T16:17:33.347Z,14.70
2023-03-08T16:20:00.385Z,16.95
2023-03-08T16:22:28.947Z,15.68
2023-03-08T16:24:56.092Z,18.05
2023-03-08T16:27:23.119Z,11.68
2023-03-08T16:29:51.296Z,14.07
2023-03-08T16:32:18.882Z,13.80
2023-03-08T16:34:50.974Z,14.88
2023-03-08T16:37:21.307Z,15.73
2023-03-08T16:39:51.407Z,16.15
2023-03-08T16:42:18.892Z,14.30
2023-03-08T16:47:33.386Z,17.75
2023-03-08T16:50:02.254Z,12.57
2023-03-08T16:52:31.452Z,12.55
2023-03-08T16:54:59.661Z,15.63
2023-03-08T16:57:27.290Z,16.92
2023-03-08T16:59:54.306Z,15.13
2023-03-08T17:08:00.101Z,14.90
2023-03-08T17:10:35.159Z,16.08
2023-03-08T17:13:02.198Z,14.55
2023-03-08T17:15:29.250Z,16.85
2023-03-08T17:17:57.046Z,17.85
2023-03-08T17:20:24.099Z,20.35
2023-03-08T17:22:51.124Z,21.58
2023-03-08T17:25:18.297Z,23.42
2023-03-08T17:27:45.342Z,21.58
2023-03-08T17:33:06.976Z,20.88
2023-03-08T17:35:36.367Z,23.10
2023-03-08T17:38:04.252Z,22.70
2023-03-08T17:40:31.597Z,25.92
2023-03-08T17:45:41.043Z,23.23
2023-03-08T17:48:10.176Z,24.02
2023-03-08T17:50:39.405Z,24.50
2023-03-08T17:53:07.085Z,26.08
2023-03-08T17:58:04.900Z,26.88
2023-03-08T18:00:33.304Z,28.27
2023-03-08T18:05:48.003Z,26.25
2023-03-08T18:08:16.075Z,24.52
2023-03-08T18:10:44.833Z,26.33
2023-03-08T18:13:12.167Z,27.77
2023-03-08T18:15:39.215Z,29.92
2023-03-08T18:18:06.214Z,35.08
2023-03-08T18:20:34.997Z,41.08
2023-03-08T18:23:03.851Z,32.60
2023-03-08T18:25:33.897Z,35.92
2023-03-08T18:28:03.504Z,31.67
2023-03-08T18:30:31.479Z,39.22
2023-03-08T18:32:58.447Z,37.20
2023-03-08T18:35:25.531Z,35.20
2023-03-08T18:37:56.767Z,31.95
2023-03-08T18:40:24.810Z,31.63
2023-03-08T18:42:59.621Z,31.85
2023-03-08T18:48:08.050Z,37.55
2023-03-08T18:50:36.024Z,35.15
2023-03-08T18:53:11.236Z,41.65
2023-03-08T18:55:38.645Z,32.20
2023-03-08T18:58:06.325Z,36.80
2023-03-08T19:00:33.607Z,36.67
2023-03-08T19:03:01.990Z,31.80
2023-03-08T19:05:35.949Z,36.08
2023-03-08T19:08:06.785Z,36.20
2023-03-08T19:13:16.732Z,41.20
2023-03-08T19:15:44.198Z,38.42
2023-03-08T19:18:12.193Z,35.42
2023-03-08T19:20:40.087Z,34.35
2023-03-08T19:23:08.488Z,42.92
2023-03-08T19:25:56.202Z,38.80
2023-03-08T19:28:23.304Z,37.58
2023-03-08T19:30:50.295Z,34.25
2023-03-08T19:33:29.779Z,36.55
2023-03-08T19:35:57.853Z,34.40
2023-03-08T19:38:24.898Z,32.03
2023-03-08T19:40:53.233Z,31.35
2023-03-08T19:43:20.760Z,30.88
2023-03-08T19:45:51.320Z,35.55
2023-03-08T19:48:19.052Z,34.13
2023-03-08T19:50:47.092Z,36.90
2023-03-08T19:53:14.490Z,35.88
2023-03-08T19:55:54.565Z,36.47
2023-03-08T19:58:25.319Z,36.60
2023-03-08T20:03:22.438Z,35.17
2023-03-08T20:05:49.462Z,32.25
2023-03-08T20:08:16.583Z,36.72
2023-03-08T20:10:44.445Z,36.35
2023-03-08T20:13:11.863Z,39.78
2023-03-08T20:15:39.771Z,30.88
2023-03-08T20:18:07.813Z,40.88
2023-03-08T20:20:41.281Z,34.22
2023-03-08T20:23:08.977Z,36.03
2023-03-08T20:25:36.434Z,33.92
2023-03-08T20:28:03.766Z,40.13
2023-03-08T20:30:31.219Z,38.40
2023-03-08T20:33:00.109Z,39.70
2023-03-08T20:35:27.474Z,39.80
2023-03-08T20:37:54.956Z,37.65
2023-03-08T20:40:22.308Z,44.13
2023-03-08T20:42:49.714Z,40.38
2023-03-08T20:45:16.911Z,45.50
2023-03-08T20:47:44.090Z,46.97
2023-03-08T20:50:11.812Z,46.15
2023-03-08T20:52:38.781Z,42.22
2023-03-08T20:55:06.039Z,39.55
2023-03-08T20:57:33.026Z,41.53
2023-03-08T21:00:00.036Z,40.05
2023-03-08T21:02:27.132Z,37.83
2023-03-08T21:04:54.187Z,38.65
2023-03-08T21:07:21.800Z,42.92
2023-03-08T21:09:48.964Z,44.28
2023-03-08T21:12:17.502Z,44.17
2023-03-08T21:14:44.811Z,39.28
2023-03-08T21:17:13.544Z,41.72
2023-03-08T21:19:40.906Z,45.53
2023-03-08T21:22:10.514Z,41.63
2023-03-08T21:27:24.480Z,40.67
2023-03-08T21:29:51.489Z,39.33
2023-03-08T21:32:18.522Z,40.80
2023-03-08T21:34:45.896Z,38.85
2023-03-08T21:37:13.352Z,41.42
2023-03-08T21:39:44.349Z,38.60
2023-03-08T21:42:11.687Z,39.05
2023-03-08T21:44:41.244Z,41.25
2023-03-08T21:47:15.790Z,45.22
2023-03-08T21:49:43.369Z,41.65
2023-03-08T21:52:11.373Z,41.00
2023-03-08T21:54:42.610Z,44.05
2023-03-08T21:57:13.485Z,40.97
2023-03-08T21:59:44.424Z,41.15
2023-03-08T22:02:20.379Z,45.50
2023-03-08T22:04:47.909Z,39.78
2023-03-08T22:07:15.645Z,38.55
2023-03-08T22:09:44.296Z,40.80
2023-03-08T22:12:13.178Z,45.60
2023-03-08T22:14:40.183Z,41.08
2023-03-08T22:17:07.230Z,44.38
2023-03-08T22:19:34.671Z,45.95
2023-03-08T22:22:02.084Z,37.80
2023-03-08T22:24:29.438Z,44.50
2023-03-08T22:26:57.356Z,44.38
2023-03-08T22:29:25.816Z,47.42
2023-03-08T22:31:53.031Z,43.08
2023-03-08T22:34:20.558Z,44.67
2023-03-08T22:36:47.652Z,43.72
2023-03-08T22:39:14.697Z,46.20
2023-03-08T22:41:42.100Z,40.83
2023-03-08T22:44:13.023Z,46.38
2023-03-08T22:46:40.451Z,41.78
2023-03-08T22:49:11.629Z,37.97
2023-03-08T22:51:43.172Z,44.30
2023-03-08T22:54:14.743Z,41.35
2023-03-08T22:56:41.842Z,50.75
2023-03-08T22:59:08.975Z,48.05
2023-03-08T23:01:36.177Z,41.80
2023-03-08T23:04:04.154Z,42.10
2023-03-08T23:06:32.062Z,43.97
2023-03-08T23:08:59.896Z,46.40
2023-03-08T23:11:27.696Z,42.60
2023-03-08T23:13:55.167Z,42.92
2023-03-08T23:16:23.191Z,45.83
2023-03-08T23:18:51.003Z,41.25
2023-03-08T23:21:19.611Z,41.30
2023-03-08T23:23:47.185Z,45.80
2023-03-08T23:26:20.910Z,50.10
2023-03-08T23:28:48.284Z,41.78
2023-03-08T23:31:17.054Z,46.72
2023-03-08T23:33:48.075Z,53.42
2023-03-08T23:36:19.270Z,49.47
2023-03-08T23:38:46.768Z,43.58
2023-03-08T23:41:14.421Z,49.10
2023-03-08T23:43:44.200Z,45.47
2023-03-08T23:46:16.551Z,46.03
2023-03-08T23:48:46.194Z,51.03
2023-03-08T23:51:15.979Z,49.33
2023-03-08T23:53:47.017Z,51.33
2023-03-08T23:56:27.183Z,49.83
2023-03-08T23:58:55.320Z,48.08
